sensor_id;sensor_type;location;lat;lon;timestamp;P1;durP1;ratioP1;P2;durP2;ratioP2
52940;SDS011;62001;53.366;6.636;2022-10-31T00:00:51;34.97;;;18.70;;
52940;SDS011;62001;53.366;6.636;2022-10-31T00:03:17;42.17;;;19.17;;
52940;SDS011;62001;53.366;6.636;2022-10-31T00:05:43;33.97;;;17.17;;
52940;SDS011;62001;53.366;6.636;2022-10-31T00:08:11;32.15;;;16.48;;
52940;SDS011;62001;53.366;6.636;2022-10-31T00:10:40;24.85;;;15.23;;
52940;SDS011;62001;53.366;6.636;2022-10-31T00:13:07;33.70;;;16.88;;
52940;SDS011;62001;53.366;6.636;2022-10-31T00:15:34;28.48;;;16.02;;
52940;SDS011;62001;53.366;6.636;2022-10-31T00:18:01;28.35;;;15.02;;
52940;SDS011;62001;53.366;6.636;2022-10-31T00:20:27;23.02;;;14.63;;
52940;SDS011;62001;53.366;6.636;2022-10-31T00:22:53;27.55;;;14.63;;
52940;SDS011;62001;53.366;6.636;2022-10-31T00:25:19;25.67;;;15.38;;
52940;SDS011;62001;53.366;6.636;2022-10-31T00:27:45;29.35;;;15.13;;
52940;SDS011;62001;53.366;6.636;2022-10-31T00:30:11;24.70;;;13.75;;
52940;SDS011;62001;53.366;6.636;2022-10-31T00:32:37;22.48;;;14.93;;
52940;SDS011;62001;53.366;6.636;2022-10-31T00:35:03;25.70;;;16.15;;
52940;SDS011;62001;53.366;6.636;2022-10-31T00:37:29;28.92;;;14.73;;
52940;SDS011;62001;53.366;6.636;2022-10-31T00:39:55;28.90;;;16.60;;
52940;SDS011;62001;53.366;6.636;2022-10-31T00:42:20;26.45;;;16.60;;
52940;SDS011;62001;53.366;6.636;2022-10-31T00:44:46;34.17;;;17.08;;
52940;SDS011;62001;53.366;6.636;2022-10-31T00:47:12;25.77;;;16.35;;
52940;SDS011;62001;53.366;6.636;2022-10-31T00:49:38;30.50;;;17.02;;
52940;SDS011;62001;53.366;6.636;2022-10-31T00:52:03;27.88;;;17.83;;
52940;SDS011;62001;53.366;6.636;2022-10-31T00:54:29;28.88;;;17.75;;
52940;SDS011;62001;53.366;6.636;2022-10-31T00:56:56;36.10;;;18.90;;
52940;SDS011;62001;53.366;6.636;2022-10-31T00:59:22;31.35;;;18.17;;
52940;SDS011;62001;53.366;6.636;2022-10-31T01:01:48;32.33;;;17.88;;
52940;SDS011;62001;53.366;6.636;2022-10-31T01:04:14;34.05;;;18.63;;
52940;SDS011;62001;53.366;6.636;2022-10-31T01:06:40;34.38;;;18.58;;
52940;SDS011;62001;53.366;6.636;2022-10-31T01:09:05;35.60;;;19.13;;
52940;SDS011;62001;53.366;6.636;2022-10-31T01:11:32;36.63;;;20.02;;
52940;SDS011;62001;53.366;6.636;2022-10-31T01:13:57;33.63;;;19.02;;
52940;SDS011;62001;53.366;6.636;2022-10-31T01:16:24;37.70;;;20.13;;
52940;SDS011;62001;53.366;6.636;2022-10-31T01:18:51;40.08;;;19.55;;
52940;SDS011;62001;53.366;6.636;2022-10-31T01:21:21;35.38;;;18.98;;
52940;SDS011;62001;53.366;6.636;2022-10-31T01:23:49;35.63;;;19.45;;
52940;SDS011;62001;53.366;6.636;2022-10-31T01:26:16;39.10;;;19.58;;
52940;SDS011;62001;53.366;6.636;2022-10-31T01:28:47;37.90;;;20.35;;
52940;SDS011;62001;53.366;6.636;2022-10-31T01:31:18;42.38;;;19.95;;
52940;SDS011;62001;53.366;6.636;2022-10-31T01:33:45;37.90;;;18.95;;
52940;SDS011;62001;53.366;6.636;2022-10-31T01:36:21;34.20;;;20.58;;
52940;SDS011;62001;53.366;6.636;2022-10-31T01:38:49;46.13;;;22.13;;
52940;SDS011;62001;53.366;6.636;2022-10-31T01:41:17;40.80;;;22.80;;
52940;SDS011;62001;53.366;6.636;2022-10-31T01:46:17;44.83;;;22.65;;
52940;SDS011;62001;53.366;6.636;2022-10-31T01:48:47;47.05;;;24.23;;
52940;SDS011;62001;53.366;6.636;2022-10-31T01:51:13;47.20;;;23.48;;
52940;SDS011;62001;53.366;6.636;2022-10-31T01:53:41;47.00;;;22.60;;
52940;SDS011;62001;53.366;6.636;2022-10-31T01:56:08;43.70;;;24.10;;
52940;SDS011;62001;53.366;6.636;2022-10-31T01:58:34;48.45;;;24.85;;
52940;SDS011;62001;53.366;6.636;2022-10-31T02:01:01;45.95;;;24.00;;
52940;SDS011;62001;53.366;6.636;2022-10-31T02:03:28;45.20;;;23.92;;
52940;SDS011;62001;53.366;6.636;2022-10-31T02:05:55;41.80;;;23.13;;
52940;SDS011;62001;53.366;6.636;2022-10-31T02:08:29;42.95;;;25.52;;
52940;SDS011;62001;53.366;6.636;2022-10-31T02:10:58;47.10;;;23.92;;
52940;SDS011;62001;53.366;6.636;2022-10-31T02:13:25;48.92;;;23.73;;
52940;SDS011;62001;53.366;6.636;2022-10-31T02:15:54;51.90;;;25.80;;
52940;SDS011;62001;53.366;6.636;2022-10-31T02:18:21;45.95;;;23.00;;
52940;SDS011;62001;53.366;6.636;2022-10-31T02:23:32;44.03;;;24.75;;
52940;SDS011;62001;53.366;6.636;2022-10-31T02:26:11;40.40;;;23.33;;
52940;SDS011;62001;53.366;6.636;2022-10-31T02:39:16;38.58;;;21.40;;
52940;SDS011;62001;53.366;6.636;2022-10-31T02:41:50;37.05;;;21.83;;
52940;SDS011;62001;53.366;6.636;2022-10-31T02:47:14;34.60;;;21.08;;
52940;SDS011;62001;53.366;6.636;2022-10-31T02:49:45;37.47;;;19.73;;
52940;SDS011;62001;53.366;6.636;2022-10-31T02:52:30;33.58;;;20.20;;
52940;SDS011;62001;53.366;6.636;2022-10-31T02:54:57;41.22;;;21.58;;
52940;SDS011;62001;53.366;6.636;2022-10-31T02:57:24;41.25;;;21.45;;
52940;SDS011;62001;53.366;6.636;2022-10-31T02:59:56;40.65;;;21.77;;
52940;SDS011;62001;53.366;6.636;2022-10-31T03:02:33;38.17;;;19.55;;
52940;SDS011;62001;53.366;6.636;2022-10-31T03:10:47;39.10;;;21.17;;
52940;SDS011;62001;53.366;6.636;2022-10-31T03:13:34;34.85;;;21.17;;
52940;SDS011;62001;53.366;6.636;2022-10-31T03:19:05;41.10;;;22.08;;
52940;SDS011;62001;53.366;6.636;2022-10-31T03:21:36;40.70;;;22.65;;
52940;SDS011;62001;53.366;6.636;2022-10-31T03:24:07;41.42;;;22.63;;
52940;SDS011;62001;53.366;6.636;2022-10-31T03:26:39;46.53;;;22.77;;
52940;SDS011;62001;53.366;6.636;2022-10-31T03:29:09;42.60;;;23.10;;
52940;SDS011;62001;53.366;6.636;2022-10-31T03:31:57;38.70;;;21.50;;
52940;SDS011;62001;53.366;6.636;2022-10-31T03:34:26;40.85;;;22.35;;
52940;SDS011;62001;53.366;6.636;2022-10-31T03:36:55;43.20;;;22.63;;
52940;SDS011;62001;53.366;6.636;2022-10-31T03:39:22;41.03;;;21.73;;
52940;SDS011;62001;53.366;6.636;2022-10-31T03:41:56;40.72;;;23.02;;
52940;SDS011;62001;53.366;6.636;2022-10-31T03:44:46;41.25;;;22.13;;
52940;SDS011;62001;53.366;6.636;2022-10-31T03:47:15;42.35;;;23.35;;
52940;SDS011;62001;53.366;6.636;2022-10-31T03:49:41;41.03;;;22.30;;
52940;SDS011;62001;53.366;6.636;2022-10-31T03:54:43;38.85;;;22.50;;
52940;SDS011;62001;53.366;6.636;2022-10-31T03:59:47;42.80;;;24.23;;
52940;SDS011;62001;53.366;6.636;2022-10-31T04:02:28;46.50;;;25.73;;
52940;SDS011;62001;53.366;6.636;2022-10-31T04:04:56;42.35;;;23.85;;
52940;SDS011;62001;53.366;6.636;2022-10-31T04:07:23;41.13;;;23.70;;
52940;SDS011;62001;53.366;6.636;2022-10-31T04:09:55;44.03;;;23.50;;
52940;SDS011;62001;53.366;6.636;2022-10-31T04:12:22;44.90;;;23.77;;
52940;SDS011;62001;53.366;6.636;2022-10-31T04:14:50;40.92;;;23.35;;
52940;SDS011;62001;53.366;6.636;2022-10-31T04:17:18;38.35;;;22.17;;
52940;SDS011;62001;53.366;6.636;2022-10-31T04:19:46;40.47;;;22.63;;
52940;SDS011;62001;53.366;6.636;2022-10-31T04:22:12;38.00;;;21.85;;
52940;SDS011;62001;53.366;6.636;2022-10-31T04:24:39;39.72;;;22.50;;
52940;SDS011;62001;53.366;6.636;2022-10-31T04:27:05;40.78;;;22.58;;
52940;SDS011;62001;53.366;6.636;2022-10-31T04:29:31;35.70;;;21.48;;
52940;SDS011;62001;53.366;6.636;2022-10-31T04:31:57;33.88;;;21.08;;
52940;SDS011;62001;53.366;6.636;2022-10-31T04:34:23;38.72;;;21.20;;
52940;SDS011;62001;53.366;6.636;2022-10-31T04:36:49;33.15;;;21.05;;
52940;SDS011;62001;53.366;6.636;2022-10-31T04:39:15;33.80;;;21.00;;
52940;SDS011;62001;53.366;6.636;2022-10-31T04:41:40;38.25;;;21.50;;
52940;SDS011;62001;53.366;6.636;2022-10-31T04:44:06;35.83;;;20.65;;
52940;SDS011;62001;53.366;6.636;2022-10-31T04:46:32;34.95;;;19.35;;
52940;SDS011;62001;53.366;6.636;2022-10-31T04:48:58;34.97;;;20.67;;
52940;SDS011;62001;53.366;6.636;2022-10-31T04:51:23;32.80;;;19.85;;
52940;SDS011;62001;53.366;6.636;2022-10-31T04:53:49;32.35;;;19.45;;
52940;SDS011;62001;53.366;6.636;2022-10-31T04:56:15;36.85;;;20.67;;
52940;SDS011;62001;53.366;6.636;2022-10-31T04:58:41;32.50;;;20.08;;
52940;SDS011;62001;53.366;6.636;2022-10-31T05:01:06;35.03;;;19.77;;
52940;SDS011;62001;53.366;6.636;2022-10-31T05:03:32;35.03;;;19.70;;
52940;SDS011;62001;53.366;6.636;2022-10-31T05:05:58;34.67;;;20.50;;
52940;SDS011;62001;53.366;6.636;2022-10-31T05:08:24;33.70;;;19.80;;
52940;SDS011;62001;53.366;6.636;2022-10-31T05:10:49;36.13;;;19.63;;
52940;SDS011;62001;53.366;6.636;2022-10-31T05:13:15;36.78;;;20.25;;
52940;SDS011;62001;53.366;6.636;2022-10-31T05:15:41;36.47;;;21.52;;
52940;SDS011;62001;53.366;6.636;2022-10-31T05:18:07;34.83;;;21.15;;
52940;SDS011;62001;53.366;6.636;2022-10-31T05:20:33;33.03;;;19.02;;
52940;SDS011;62001;53.366;6.636;2022-10-31T05:22:59;33.58;;;19.73;;
52940;SDS011;62001;53.366;6.636;2022-10-31T05:25:26;32.90;;;19.33;;
52940;SDS011;62001;53.366;6.636;2022-10-31T05:27:53;35.95;;;19.95;;
52940;SDS011;62001;53.366;6.636;2022-10-31T05:30:26;35.33;;;20.02;;
52940;SDS011;62001;53.366;6.636;2022-10-31T05:32:54;32.17;;;18.95;;
52940;SDS011;62001;53.366;6.636;2022-10-31T05:35:28;39.38;;;20.60;;
52940;SDS011;62001;53.366;6.636;2022-10-31T05:37:55;36.30;;;19.40;;
52940;SDS011;62001;53.366;6.636;2022-10-31T05:40:22;34.30;;;19.38;;
52940;SDS011;62001;53.366;6.636;2022-10-31T05:42:50;34.55;;;19.08;;
52940;SDS011;62001;53.366;6.636;2022-10-31T05:45:17;31.98;;;19.45;;
52940;SDS011;62001;53.366;6.636;2022-10-31T05:47:54;31.02;;;19.35;;
52940;SDS011;62001;53.366;6.636;2022-10-31T05:50:21;36.47;;;18.27;;
52940;SDS011;62001;53.366;6.636;2022-10-31T05:52:53;33.80;;;17.52;;
52940;SDS011;62001;53.366;6.636;2022-10-31T05:55:30;27.58;;;17.00;;
52940;SDS011;62001;53.366;6.636;2022-10-31T05:57:56;25.27;;;16.48;;
52940;SDS011;62001;53.366;6.636;2022-10-31T06:00:23;25.23;;;15.10;;
52940;SDS011;62001;53.366;6.636;2022-10-31T06:02:49;20.10;;;13.73;;
52940;SDS011;62001;53.366;6.636;2022-10-31T06:05:23;18.95;;;12.05;;
52940;SDS011;62001;53.366;6.636;2022-10-31T06:07:49;23.48;;;11.90;;
52940;SDS011;62001;53.366;6.636;2022-10-31T06:10:15;17.52;;;11.05;;
52940;SDS011;62001;53.366;6.636;2022-10-31T06:12:40;22.60;;;13.35;;
52940;SDS011;62001;53.366;6.636;2022-10-31T06:15:07;23.13;;;14.38;;
52940;SDS011;62001;53.366;6.636;2022-10-31T06:17:34;22.27;;;13.27;;
52940;SDS011;62001;53.366;6.636;2022-10-31T06:20:00;24.38;;;13.95;;
52940;SDS011;62001;53.366;6.636;2022-10-31T06:22:26;21.30;;;13.07;;
52940;SDS011;62001;53.366;6.636;2022-10-31T06:24:52;23.45;;;12.65;;
52940;SDS011;62001;53.366;6.636;2022-10-31T06:27:18;16.02;;;11.93;;
52940;SDS011;62001;53.366;6.636;2022-10-31T06:29:44;20.25;;;12.88;;
52940;SDS011;62001;53.366;6.636;2022-10-31T06:32:11;22.48;;;13.60;;
52940;SDS011;62001;53.366;6.636;2022-10-31T06:34:38;17.58;;;12.32;;
52940;SDS011;62001;53.366;6.636;2022-10-31T06:37:05;18.00;;;12.15;;
52940;SDS011;62001;53.366;6.636;2022-10-31T06:39:32;17.05;;;11.55;;
52940;SDS011;62001;53.366;6.636;2022-10-31T06:41:58;21.88;;;13.32;;
52940;SDS011;62001;53.366;6.636;2022-10-31T06:44:24;20.27;;;13.13;;
52940;SDS011;62001;53.366;6.636;2022-10-31T06:46:50;23.92;;;14.32;;
52940;SDS011;62001;53.366;6.636;2022-10-31T06:49:15;25.40;;;14.90;;
52940;SDS011;62001;53.366;6.636;2022-10-31T06:51:41;23.40;;;12.95;;
52940;SDS011;62001;53.366;6.636;2022-10-31T06:54:07;29.88;;;15.10;;
52940;SDS011;62001;53.366;6.636;2022-10-31T06:56:33;24.70;;;14.15;;
52940;SDS011;62001;53.366;6.636;2022-10-31T06:58:59;25.40;;;14.20;;
52940;SDS011;62001;53.366;6.636;2022-10-31T07:01:24;22.73;;;13.02;;
52940;SDS011;62001;53.366;6.636;2022-10-31T07:03:51;25.42;;;14.43;;
52940;SDS011;62001;53.366;6.636;2022-10-31T07:06:17;23.48;;;14.85;;
52940;SDS011;62001;53.366;6.636;2022-10-31T07:08:42;21.35;;;14.88;;
52940;SDS011;62001;53.366;6.636;2022-10-31T07:11:08;24.10;;;14.55;;
52940;SDS011;62001;53.366;6.636;2022-10-31T07:13:34;26.13;;;16.45;;
52940;SDS011;62001;53.366;6.636;2022-10-31T07:16:00;29.17;;;17.40;;
52940;SDS011;62001;53.366;6.636;2022-10-31T07:18:28;27.00;;;17.25;;
52940;SDS011;62001;53.366;6.636;2022-10-31T07:20:55;28.20;;;17.67;;
52940;SDS011;62001;53.366;6.636;2022-10-31T07:23:21;30.65;;;19.40;;
52940;SDS011;62001;53.366;6.636;2022-10-31T07:25:47;33.13;;;19.65;;
52940;SDS011;62001;53.366;6.636;2022-10-31T07:28:13;36.63;;;21.83;;
52940;SDS011;62001;53.366;6.636;2022-10-31T07:30:39;43.33;;;25.48;;
52940;SDS011;62001;53.366;6.636;2022-10-31T07:33:05;41.60;;;25.00;;
52940;SDS011;62001;53.366;6.636;2022-10-31T07:35:31;48.00;;;26.08;;
52940;SDS011;62001;53.366;6.636;2022-10-31T07:37:57;41.60;;;25.63;;
52940;SDS011;62001;53.366;6.636;2022-10-31T07:40:31;39.88;;;25.13;;
52940;SDS011;62001;53.366;6.636;2022-10-31T07:42:57;37.17;;;23.30;;
52940;SDS011;62001;53.366;6.636;2022-10-31T07:45:23;33.42;;;22.50;;
52940;SDS011;62001;53.366;6.636;2022-10-31T07:47:52;33.45;;;22.52;;
52940;SDS011;62001;53.366;6.636;2022-10-31T07:50:19;35.00;;;22.13;;
52940;SDS011;62001;53.366;6.636;2022-10-31T07:52:46;34.60;;;21.55;;
52940;SDS011;62001;53.366;6.636;2022-10-31T07:55:13;33.50;;;22.20;;
52940;SDS011;62001;53.366;6.636;2022-10-31T07:57:39;31.38;;;21.42;;
52940;SDS011;62001;53.366;6.636;2022-10-31T08:00:06;31.85;;;21.30;;
52940;SDS011;62001;53.366;6.636;2022-10-31T08:02:35;27.23;;;19.30;;
52940;SDS011;62001;53.366;6.636;2022-10-31T08:05:00;28.73;;;20.13;;
52940;SDS011;62001;53.366;6.636;2022-10-31T08:07:29;28.90;;;20.02;;
52940;SDS011;62001;53.366;6.636;2022-10-31T08:10:00;29.77;;;20.88;;
52940;SDS011;62001;53.366;6.636;2022-10-31T08:12:26;27.77;;;19.23;;
52940;SDS011;62001;53.366;6.636;2022-10-31T08:14:52;28.90;;;20.73;;
52940;SDS011;62001;53.366;6.636;2022-10-31T08:17:17;29.38;;;19.23;;
52940;SDS011;62001;53.366;6.636;2022-10-31T08:19:43;29.60;;;19.75;;
52940;SDS011;62001;53.366;6.636;2022-10-31T08:22:09;25.95;;;19.63;;
52940;SDS011;62001;53.366;6.636;2022-10-31T08:24:35;26.38;;;19.90;;
52940;SDS011;62001;53.366;6.636;2022-10-31T08:27:00;29.02;;;20.33;;
52940;SDS011;62001;53.366;6.636;2022-10-31T08:29:26;25.45;;;17.67;;
52940;SDS011;62001;53.366;6.636;2022-10-31T08:31:52;25.77;;;18.80;;
52940;SDS011;62001;53.366;6.636;2022-10-31T08:34:18;24.92;;;18.77;;
52940;SDS011;62001;53.366;6.636;2022-10-31T08:36:44;25.00;;;18.20;;
52940;SDS011;62001;53.366;6.636;2022-10-31T08:39:11;25.88;;;19.02;;
52940;SDS011;62001;53.366;6.636;2022-10-31T08:41:37;24.27;;;18.33;;
52940;SDS011;62001;53.366;6.636;2022-10-31T08:44:02;24.08;;;17.45;;
52940;SDS011;62001;53.366;6.636;2022-10-31T08:46:28;24.45;;;16.85;;
52940;SDS011;62001;53.366;6.636;2022-10-31T08:48:54;26.17;;;18.23;;
52940;SDS011;62001;53.366;6.636;2022-10-31T08:51:20;28.15;;;18.60;;
52940;SDS011;62001;53.366;6.636;2022-10-31T08:53:45;23.67;;;17.77;;
52940;SDS011;62001;53.366;6.636;2022-10-31T08:56:11;21.95;;;17.38;;
52940;SDS011;62001;53.366;6.636;2022-10-31T08:58:37;24.92;;;17.58;;
52940;SDS011;62001;53.366;6.636;2022-10-31T09:01:03;22.20;;;17.05;;
52940;SDS011;62001;53.366;6.636;2022-10-31T09:03:29;24.05;;;17.65;;
52940;SDS011;62001;53.366;6.636;2022-10-31T09:06:00;22.30;;;17.00;;
52940;SDS011;62001;53.366;6.636;2022-10-31T09:08:31;22.08;;;17.42;;
52940;SDS011;62001;53.366;6.636;2022-10-31T09:10:57;23.77;;;17.25;;
52940;SDS011;62001;53.366;6.636;2022-10-31T09:13:24;24.15;;;17.58;;
52940;SDS011;62001;53.366;6.636;2022-10-31T09:15:50;26.50;;;17.38;;
52940;SDS011;62001;53.366;6.636;2022-10-31T09:18:17;25.98;;;17.60;;
52940;SDS011;62001;53.366;6.636;2022-10-31T09:20:45;23.20;;;17.00;;
52940;SDS011;62001;53.366;6.636;2022-10-31T09:23:16;23.00;;;17.20;;
52940;SDS011;62001;53.366;6.636;2022-10-31T09:25:43;22.67;;;15.85;;
52940;SDS011;62001;53.366;6.636;2022-10-31T09:28:12;20.65;;;16.45;;
52940;SDS011;62001;53.366;6.636;2022-10-31T09:30:40;23.02;;;16.52;;
52940;SDS011;62001;53.366;6.636;2022-10-31T09:33:10;21.17;;;15.88;;
52940;SDS011;62001;53.366;6.636;2022-10-31T09:35:37;21.13;;;16.33;;
52940;SDS011;62001;53.366;6.636;2022-10-31T09:38:05;23.65;;;16.73;;
52940;SDS011;62001;53.366;6.636;2022-10-31T09:40:39;22.08;;;17.50;;
52940;SDS011;62001;53.366;6.636;2022-10-31T09:45:53;23.50;;;17.27;;
52940;SDS011;62001;53.366;6.636;2022-10-31T09:51:25;24.10;;;15.98;;
52940;SDS011;62001;53.366;6.636;2022-10-31T09:54:04;23.10;;;16.63;;
52940;SDS011;62001;53.366;6.636;2022-10-31T09:56:39;20.80;;;15.23;;
52940;SDS011;62001;53.366;6.636;2022-10-31T09:59:06;24.60;;;15.18;;
52940;SDS011;62001;53.366;6.636;2022-10-31T10:01:50;19.88;;;13.77;;
52940;SDS011;62001;53.366;6.636;2022-10-31T10:10:29;20.45;;;14.60;;
52940;SDS011;62001;53.366;6.636;2022-10-31T10:30:41;17.73;;;13.98;;
52940;SDS011;62001;53.366;6.636;2022-10-31T10:33:32;24.38;;;14.52;;
52940;SDS011;62001;53.366;6.636;2022-10-31T10:36:06;17.83;;;13.40;;
52940;SDS011;62001;53.366;6.636;2022-10-31T10:41:16;20.58;;;13.70;;
52940;SDS011;62001;53.366;6.636;2022-10-31T10:43:45;17.77;;;13.25;;
52940;SDS011;62001;53.366;6.636;2022-10-31T10:54:32;16.55;;;12.75;;
52940;SDS011;62001;53.366;6.636;2022-10-31T10:59:48;17.83;;;11.38;;
52940;SDS011;62001;53.366;6.636;2022-10-31T11:02:20;15.50;;;11.20;;
52940;SDS011;62001;53.366;6.636;2022-10-31T11:04:55;19.38;;;10.30;;
52940;SDS011;62001;53.366;6.636;2022-10-31T11:07:24;14.68;;;9.98;;
52940;SDS011;62001;53.366;6.636;2022-10-31T11:09:50;14.10;;;9.38;;
52940;SDS011;62001;53.366;6.636;2022-10-31T11:12:22;16.52;;;9.95;;
52940;SDS011;62001;53.366;6.636;2022-10-31T11:15:03;15.13;;;9.13;;
52940;SDS011;62001;53.366;6.636;2022-10-31T11:17:41;12.88;;;9.52;;
52940;SDS011;62001;53.366;6.636;2022-10-31T11:22:40;14.55;;;8.70;;
52940;SDS011;62001;53.366;6.636;2022-10-31T11:25:20;16.90;;;9.25;;
52940;SDS011;62001;53.366;6.636;2022-10-31T11:27:47;14.20;;;9.05;;
52940;SDS011;62001;53.366;6.636;2022-10-31T11:30:28;15.10;;;9.20;;
52940;SDS011;62001;53.366;6.636;2022-10-31T11:32:54;15.57;;;8.18;;
52940;SDS011;62001;53.366;6.636;2022-10-31T11:35:22;11.98;;;7.38;;
52940;SDS011;62001;53.366;6.636;2022-10-31T11:37:50;13.85;;;7.60;;
52940;SDS011;62001;53.366;6.636;2022-10-31T11:40:19;14.27;;;8.10;;
52940;SDS011;62001;53.366;6.636;2022-10-31T11:42:48;12.60;;;7.73;;
52940;SDS011;62001;53.366;6.636;2022-10-31T11:47:48;13.32;;;8.10;;
52940;SDS011;62001;53.366;6.636;2022-10-31T11:50:22;13.23;;;8.82;;
52940;SDS011;62001;53.366;6.636;2022-10-31T11:53:10;14.98;;;8.65;;
52940;SDS011;62001;53.366;6.636;2022-10-31T11:55:41;13.80;;;9.18;;
52940;SDS011;62001;53.366;6.636;2022-10-31T11:58:21;17.63;;;10.38;;
52940;SDS011;62001;53.366;6.636;2022-10-31T12:05:48;15.57;;;11.02;;
52940;SDS011;62001;53.366;6.636;2022-10-31T12:08:20;16.63;;;10.80;;
52940;SDS011;62001;53.366;6.636;2022-10-31T12:10:57;18.27;;;12.02;;
52940;SDS011;62001;53.366;6.636;2022-10-31T12:13:42;21.10;;;13.32;;
52940;SDS011;62001;53.366;6.636;2022-10-31T12:21:53;14.88;;;10.65;;
52940;SDS011;62001;53.366;6.636;2022-10-31T12:27:24;15.48;;;9.75;;
52940;SDS011;62001;53.366;6.636;2022-10-31T12:30:23;17.08;;;9.65;;
52940;SDS011;62001;53.366;6.636;2022-10-31T12:39:14;18.25;;;11.07;;
52940;SDS011;62001;53.366;6.636;2022-10-31T12:49:53;18.65;;;10.43;;
52940;SDS011;62001;53.366;6.636;2022-10-31T13:00:53;17.05;;;9.85;;
52940;SDS011;62001;53.366;6.636;2022-10-31T13:03:49;16.85;;;10.68;;
52940;SDS011;62001;53.366;6.636;2022-10-31T13:06:23;17.67;;;8.60;;
52940;SDS011;62001;53.366;6.636;2022-10-31T13:08:56;17.17;;;9.65;;
52940;SDS011;62001;53.366;6.636;2022-10-31T13:11:34;20.17;;;10.40;;
52940;SDS011;62001;53.366;6.636;2022-10-31T13:14:13;18.20;;;10.13;;
52940;SDS011;62001;53.366;6.636;2022-10-31T13:17:02;17.35;;;10.05;;
52940;SDS011;62001;53.366;6.636;2022-10-31T13:19:30;16.30;;;9.30;;
52940;SDS011;62001;53.366;6.636;2022-10-31T13:22:10;19.42;;;9.88;;
52940;SDS011;62001;53.366;6.636;2022-10-31T13:24:44;15.57;;;9.20;;
52940;SDS011;62001;53.366;6.636;2022-10-31T13:27:20;21.90;;;9.70;;
52940;SDS011;62001;53.366;6.636;2022-10-31T13:32:42;14.98;;;9.13;;
52940;SDS011;62001;53.366;6.636;2022-10-31T13:37:58;18.45;;;8.77;;
52940;SDS011;62001;53.366;6.636;2022-10-31T13:43:06;17.70;;;8.80;;
52940;SDS011;62001;53.366;6.636;2022-10-31T13:46:02;16.02;;;9.25;;
52940;SDS011;62001;53.366;6.636;2022-10-31T13:48:46;17.77;;;8.82;;
52940;SDS011;62001;53.366;6.636;2022-10-31T13:51:12;18.65;;;9.13;;
52940;SDS011;62001;53.366;6.636;2022-10-31T13:56:18;16.77;;;8.77;;
52940;SDS011;62001;53.366;6.636;2022-10-31T14:01:32;22.77;;;10.13;;
52940;SDS011;62001;53.366;6.636;2022-10-31T14:09:40;19.58;;;10.07;;
52940;SDS011;62001;53.366;6.636;2022-10-31T14:12:29;17.65;;;9.32;;
52940;SDS011;62001;53.366;6.636;2022-10-31T14:18:02;18.27;;;8.65;;
52940;SDS011;62001;53.366;6.636;2022-10-31T14:20:36;14.05;;;8.38;;
52940;SDS011;62001;53.366;6.636;2022-10-31T14:26:58;16.88;;;8.25;;
52940;SDS011;62001;53.366;6.636;2022-10-31T14:29:40;17.52;;;8.82;;
52940;SDS011;62001;53.366;6.636;2022-10-31T14:31:54;17.70;;;9.07;;
52940;SDS011;62001;53.366;6.636;2022-10-31T14:51:13;22.45;;;11.15;;
52940;SDS011;62001;53.366;6.636;2022-10-31T14:53:46;26.20;;;12.85;;
52940;SDS011;62001;53.366;6.636;2022-10-31T14:56:20;19.17;;;12.13;;
52940;SDS011;62001;53.366;6.636;2022-10-31T14:58:54;22.77;;;12.27;;
52940;SDS011;62001;53.366;6.636;2022-10-31T15:01:26;22.42;;;12.32;;
52940;SDS011;62001;53.366;6.636;2022-10-31T15:04:00;20.80;;;11.73;;
52940;SDS011;62001;53.366;6.636;2022-10-31T15:07:03;19.90;;;10.05;;
52940;SDS011;62001;53.366;6.636;2022-10-31T15:09:32;19.98;;;10.38;;
52940;SDS011;62001;53.366;6.636;2022-10-31T15:12:00;18.13;;;10.00;;
52940;SDS011;62001;53.366;6.636;2022-10-31T15:14:39;21.77;;;10.57;;
52940;SDS011;62001;53.366;6.636;2022-10-31T15:17:05;19.02;;;10.00;;
52940;SDS011;62001;53.366;6.636;2022-10-31T15:19:32;21.80;;;10.88;;
52940;SDS011;62001;53.366;6.636;2022-10-31T15:21:59;21.25;;;10.38;;
52940;SDS011;62001;53.366;6.636;2022-10-31T15:24:29;22.88;;;11.45;;
52940;SDS011;62001;53.366;6.636;2022-10-31T15:27:01;20.92;;;11.75;;
52940;SDS011;62001;53.366;6.636;2022-10-31T15:29:28;23.70;;;10.98;;
52940;SDS011;62001;53.366;6.636;2022-10-31T15:31:55;25.23;;;12.15;;
52940;SDS011;62001;53.366;6.636;2022-10-31T15:34:29;25.02;;;12.77;;
52940;SDS011;62001;53.366;6.636;2022-10-31T15:36:57;22.20;;;12.35;;
52940;SDS011;62001;53.366;6.636;2022-10-31T15:39:23;22.08;;;12.60;;
52940;SDS011;62001;53.366;6.636;2022-10-31T15:41:52;20.02;;;12.52;;
52940;SDS011;62001;53.366;6.636;2022-10-31T15:44:28;22.63;;;13.68;;
52940;SDS011;62001;53.366;6.636;2022-10-31T15:47:01;22.67;;;12.85;;
52940;SDS011;62001;53.366;6.636;2022-10-31T15:49:35;24.42;;;14.27;;
52940;SDS011;62001;53.366;6.636;2022-10-31T15:52:14;24.60;;;14.55;;
52940;SDS011;62001;53.366;6.636;2022-10-31T15:54:48;27.08;;;16.73;;
52940;SDS011;62001;53.366;6.636;2022-10-31T15:57:16;28.00;;;17.42;;
52940;SDS011;62001;53.366;6.636;2022-10-31T15:59:45;30.52;;;18.33;;
52940;SDS011;62001;53.366;6.636;2022-10-31T16:02:13;33.30;;;19.20;;
52940;SDS011;62001;53.366;6.636;2022-10-31T16:04:54;29.42;;;18.90;;
52940;SDS011;62001;53.366;6.636;2022-10-31T16:07:21;31.63;;;18.88;;
52940;SDS011;62001;53.366;6.636;2022-10-31T16:09:48;31.02;;;19.63;;
52940;SDS011;62001;53.366;6.636;2022-10-31T16:12:16;31.88;;;20.52;;
52940;SDS011;62001;53.366;6.636;2022-10-31T16:14:42;27.83;;;18.77;;
52940;SDS011;62001;53.366;6.636;2022-10-31T16:17:12;32.33;;;19.00;;
52940;SDS011;62001;53.366;6.636;2022-10-31T16:19:46;27.17;;;18.73;;
52940;SDS011;62001;53.366;6.636;2022-10-31T16:22:19;27.65;;;18.08;;
52940;SDS011;62001;53.366;6.636;2022-10-31T16:27:30;25.85;;;16.02;;
52940;SDS011;62001;53.366;6.636;2022-10-31T16:29:59;23.25;;;15.98;;
52940;SDS011;62001;53.366;6.636;2022-10-31T16:32:33;25.17;;;15.30;;
52940;SDS011;62001;53.366;6.636;2022-10-31T16:37:37;25.38;;;15.18;;
52940;SDS011;62001;53.366;6.636;2022-10-31T16:40:05;26.23;;;14.82;;
52940;SDS011;62001;53.366;6.636;2022-10-31T16:42:33;24.27;;;14.70;;
52940;SDS011;62001;53.366;6.636;2022-10-31T16:44:58;22.23;;;13.82;;
52940;SDS011;62001;53.366;6.636;2022-10-31T16:47:25;26.88;;;14.43;;
52940;SDS011;62001;53.366;6.636;2022-10-31T16:49:51;21.55;;;13.63;;
52940;SDS011;62001;53.366;6.636;2022-10-31T16:52:17;21.13;;;13.32;;
52940;SDS011;62001;53.366;6.636;2022-10-31T16:54:43;20.33;;;13.98;;
52940;SDS011;62001;53.366;6.636;2022-10-31T16:57:13;21.55;;;14.45;;
52940;SDS011;62001;53.366;6.636;2022-10-31T16:59:42;21.90;;;14.15;;
52940;SDS011;62001;53.366;6.636;2022-10-31T17:02:13;24.23;;;14.93;;
52940;SDS011;62001;53.366;6.636;2022-10-31T17:04:40;21.08;;;14.80;;
52940;SDS011;62001;53.366;6.636;2022-10-31T17:07:06;20.02;;;15.35;;
52940;SDS011;62001;53.366;6.636;2022-10-31T17:09:32;23.45;;;14.80;;
52940;SDS011;62001;53.366;6.636;2022-10-31T17:11:58;23.55;;;15.00;;
52940;SDS011;62001;53.366;6.636;2022-10-31T17:14:24;22.98;;;15.32;;
52940;SDS011;62001;53.366;6.636;2022-10-31T17:16:50;26.25;;;15.38;;
52940;SDS011;62001;53.366;6.636;2022-10-31T17:19:16;23.38;;;16.17;;
52940;SDS011;62001;53.366;6.636;2022-10-31T17:21:42;23.27;;;15.23;;